createdAt,value
2018-07-14T00:00:00.772Z,17.92
2018-07-14T00:01:00.773Z,17.87
2018-07-14T00:02:00.790Z,17.82
2018-07-14T00:03:00.764Z,17.83
2018-07-14T00:04:00.764Z,17.85
2018-07-14T00:05:00.758Z,17.82
2018-07-14T00:06:00.757Z,17.76
2018-07-14T00:07:00.753Z,17.82
2018-07-14T00:08:00.755Z,17.83
2018-07-14T00:09:00.750Z,17.70
2018-07-14T00:10:00.795Z,17.67
2018-07-14T00:11:00.745Z,17.70
2018-07-14T00:12:00.742Z,17.60
2018-07-14T00:13:00.739Z,17.57
2018-07-14T00:14:00.738Z,17.57
2018-07-14T00:15:00.734Z,17.54
2018-07-14T00:16:00.735Z,17.54
2018-07-14T00:17:00.737Z,17.57
2018-07-14T00:18:00.744Z,17.51
2018-07-14T00:19:00.737Z,17.57
2018-07-14T00:20:00.725Z,17.63
2018-07-14T00:21:00.722Z,17.52
2018-07-14T00:22:00.721Z,17.48
2018-07-14T00:23:00.715Z,17.42
2018-07-14T00:24:00.721Z,17.42
2018-07-14T00:25:00.712Z,17.44
2018-07-14T00:26:00.713Z,17.42
2018-07-14T00:27:00.708Z,17.41
2018-07-14T00:28:00.709Z,17.41
2018-07-14T00:29:00.712Z,17.51
2018-07-14T00:30:00.699Z,17.44
2018-07-14T00:31:00.697Z,17.44
2018-07-14T00:32:00.697Z,17.36
2018-07-14T00:33:00.696Z,17.38
2018-07-14T00:34:00.687Z,17.31
2018-07-14T00:35:00.686Z,17.24
2018-07-14T00:36:00.686Z,17.09
2018-07-14T00:37:00.682Z,17.12
2018-07-14T00:38:00.689Z,17.19
2018-07-14T00:39:00.688Z,17.15
2018-07-14T00:40:00.674Z,17.09
2018-07-14T00:41:00.671Z,17.12
2018-07-14T00:42:00.669Z,17.09
2018-07-14T00:43:00.665Z,17.12
2018-07-14T00:44:00.663Z,17.15
2018-07-14T00:45:00.660Z,17.14
2018-07-14T00:46:00.661Z,17.14
2018-07-14T00:47:00.656Z,17.15
2018-07-14T00:48:00.665Z,17.08
2018-07-14T00:49:00.649Z,17.05
2018-07-14T00:50:00.649Z,17.16
2018-07-14T00:51:00.649Z,17.09
2018-07-14T00:52:00.647Z,17.15
2018-07-14T00:53:00.651Z,17.14
2018-07-14T00:54:00.641Z,17.19
2018-07-14T00:55:00.642Z,17.04
2018-07-14T00:56:00.635Z,17.06
2018-07-14T00:57:00.634Z,16.94
2018-07-14T00:58:00.640Z,16.90
2018-07-14T00:59:00.640Z,16.89
2018-07-14T01:00:00.635Z,16.81
2018-07-14T01:01:00.656Z,16.86
2018-07-14T01:02:00.625Z,16.89
2018-07-14T01:03:00.620Z,16.87
2018-07-14T01:04:00.611Z,16.83
2018-07-14T01:05:00.609Z,16.83
2018-07-14T01:06:00.607Z,16.86
2018-07-14T01:07:00.610Z,16.83
2018-07-14T01:08:00.600Z,16.81
2018-07-14T01:09:00.598Z,16.83
2018-07-14T01:10:00.594Z,16.83
2018-07-14T01:11:00.594Z,16.86
2018-07-14T01:12:00.593Z,16.81
2018-07-14T01:13:00.590Z,16.79
2018-07-14T01:14:00.591Z,16.71
2018-07-14T01:15:00.587Z,16.66
2018-07-14T01:16:00.582Z,16.66
2018-07-14T01:17:00.578Z,16.72
2018-07-14T01:18:00.576Z,16.66
2018-07-14T01:19:00.569Z,16.61
2018-07-14T01:20:00.574Z,16.66
2018-07-14T01:21:00.568Z,16.54
2018-07-14T01:22:00.562Z,16.58
2018-07-14T01:23:00.576Z,16.58
2018-07-14T01:24:00.557Z,16.58
2018-07-14T01:25:00.552Z,16.47
2018-07-14T01:26:00.550Z,16.46
2018-07-14T01:27:00.550Z,16.39
2018-07-14T01:28:00.547Z,16.47
2018-07-14T01:29:00.549Z,16.42
2018-07-14T01:30:00.537Z,16.43
2018-07-14T01:31:00.539Z,16.35
2018-07-14T01:32:00.545Z,16.38
2018-07-14T01:33:00.534Z,16.36
2018-07-14T01:34:00.529Z,16.39
2018-07-14T01:35:00.523Z,16.33
2018-07-14T01:36:00.523Z,16.29
2018-07-14T01:37:00.518Z,16.26
2018-07-14T01:38:00.516Z,16.23
2018-07-14T01:39:00.511Z,16.31
2018-07-14T01:40:00.506Z,16.26
2018-07-14T01:41:00.503Z,16.28
2018-07-14T01:42:00.501Z,16.21
2018-07-14T01:43:00.501Z,16.24
2018-07-14T01:44:00.497Z,16.23
2018-07-14T01:45:00.493Z,16.21
2018-07-14T01:46:00.494Z,16.28
2018-07-14T01:47:00.489Z,16.23
2018-07-14T01:48:00.490Z,16.29
2018-07-14T01:49:00.481Z,16.24
2018-07-14T01:50:00.485Z,16.24
2018-07-14T01:51:00.481Z,16.28
2018-07-14T01:52:00.471Z,16.20
2018-07-14T01:53:00.468Z,16.17
2018-07-14T01:54:00.466Z,16.12
2018-07-14T01:55:00.461Z,16.12
2018-07-14T01:56:00.458Z,16.05
2018-07-14T01:57:00.461Z,16.08
2018-07-14T01:58:00.457Z,16.04
2018-07-14T01:59:00.447Z,16.16
2018-07-14T02:00:00.446Z,16.08
2018-07-14T02:01:00.444Z,16.05
2018-07-14T02:02:00.442Z,16.02
2018-07-14T02:03:00.455Z,16.05
2018-07-14T02:04:00.435Z,16.08
2018-07-14T02:05:00.435Z,16.04
2018-07-14T02:06:00.431Z,16.00
2018-07-14T02:07:00.424Z,16.01
2018-07-14T02:08:00.429Z,15.94
2018-07-14T02:09:00.425Z,15.94
2018-07-14T02:10:00.416Z,15.92
2018-07-14T02:11:00.412Z,15.91
2018-07-14T02:12:00.410Z,15.91
2018-07-14T02:13:00.407Z,15.88
2018-07-14T02:14:00.406Z,15.98
2018-07-14T02:15:00.400Z,15.80
2018-07-14T02:16:00.393Z,15.80
2018-07-14T02:17:00.394Z,15.80
2018-07-14T02:18:00.395Z,15.73
2018-07-14T02:19:00.387Z,15.84
2018-07-14T02:20:00.386Z,15.75
2018-07-14T02:21:00.384Z,15.83
2018-07-14T02:22:00.375Z,15.75
2018-07-14T02:23:00.376Z,15.73
2018-07-14T02:24:00.379Z,15.70
2018-07-14T02:25:00.371Z,15.72
2018-07-14T02:26:00.366Z,15.68
2018-07-14T02:27:00.361Z,15.70
2018-07-14T02:28:00.358Z,15.75
2018-07-14T02:29:00.356Z,15.67
2018-07-14T02:30:00.363Z,15.73
2018-07-14T02:31:00.352Z,15.61
2018-07-14T02:32:00.346Z,15.62
2018-07-14T02:33:00.346Z,15.59
2018-07-14T02:34:00.335Z,15.58
2018-07-14T02:35:00.334Z,15.61
2018-07-14T02:36:00.333Z,15.61
2018-07-14T02:37:00.326Z,15.62
2018-07-14T02:38:00.328Z,15.67
2018-07-14T02:39:00.321Z,15.61
2018-07-14T02:40:00.320Z,15.52
2018-07-14T02:41:00.317Z,15.58
2018-07-14T02:42:00.312Z,15.52
2018-07-14T02:43:00.306Z,15.61
2018-07-14T02:44:00.303Z,15.55
2018-07-14T02:45:00.297Z,15.52
2018-07-14T02:46:00.305Z,15.54
2018-07-14T02:47:00.294Z,15.49
2018-07-14T02:48:00.295Z,15.51
2018-07-14T02:49:00.288Z,15.54
2018-07-14T02:50:00.280Z,15.43
2018-07-14T02:51:00.287Z,15.54
2018-07-14T02:52:00.274Z,15.55
2018-07-14T02:53:00.278Z,15.47
2018-07-14T02:54:00.277Z,15.49
2018-07-14T02:55:00.267Z,15.51
2018-07-14T02:56:00.261Z,15.37
2018-07-14T02:57:00.257Z,15.39
2018-07-14T02:58:00.253Z,15.37
2018-07-14T02:59:00.249Z,15.35
2018-07-14T03:00:00.246Z,15.29
2018-07-14T03:01:00.247Z,15.37
2018-07-14T03:02:00.244Z,15.37
2018-07-14T03:03:00.244Z,15.46
2018-07-14T03:04:00.235Z,15.35
2018-07-14T03:05:00.289Z,15.33
2018-07-14T03:06:00.227Z,15.31
2018-07-14T03:07:00.223Z,15.35
2018-07-14T03:08:00.234Z,15.29
2018-07-14T03:09:00.224Z,15.33
2018-07-14T03:10:00.215Z,15.25
2018-07-14T03:11:00.215Z,15.25
2018-07-14T03:12:00.206Z,15.27
2018-07-14T03:13:00.310Z,15.29
2018-07-14T03:14:00.238Z,15.29
2018-07-14T03:15:00.205Z,15.33
2018-07-14T03:16:00.196Z,15.29
2018-07-14T03:17:00.190Z,15.33
2018-07-14T03:18:00.195Z,15.25
2018-07-14T03:19:00.182Z,15.39
2018-07-14T03:20:00.176Z,15.33
2018-07-14T03:21:00.174Z,15.22
2018-07-14T03:22:00.167Z,15.28
2018-07-14T03:23:00.167Z,15.33
2018-07-14T03:24:00.164Z,15.36
2018-07-14T03:25:00.163Z,15.37
2018-07-14T03:26:00.154Z,15.29
2018-07-14T03:27:00.150Z,15.31
2018-07-14T03:28:00.152Z,15.31
2018-07-14T03:29:00.165Z,15.25
2018-07-14T03:30:00.149Z,15.33
2018-07-14T03:31:00.139Z,15.29
2018-07-14T03:32:00.139Z,15.29
2018-07-14T03:33:00.131Z,15.29
2018-07-14T03:34:00.125Z,15.28
2018-07-14T03:35:00.126Z,15.35
2018-07-14T03:36:00.121Z,15.29
2018-07-14T03:37:00.121Z,15.35
2018-07-14T03:38:00.116Z,15.39
2018-07-14T03:39:00.117Z,15.29
2018-07-14T03:40:00.135Z,15.31
2018-07-14T03:41:00.107Z,15.29
2018-07-14T03:42:00.114Z,15.39
2018-07-14T03:43:00.108Z,15.40
2018-07-14T03:44:00.103Z,15.37
2018-07-14T03:45:00.091Z,15.37
2018-07-14T03:46:00.094Z,15.46
2018-07-14T03:47:00.092Z,15.37
2018-07-14T03:48:00.091Z,15.36
2018-07-14T03:49:00.072Z,15.35
2018-07-14T03:50:00.092Z,15.40
2018-07-14T03:51:00.065Z,15.44
2018-07-14T03:52:00.064Z,15.43
2018-07-14T03:53:00.055Z,15.49
2018-07-14T03:54:00.053Z,15.55
2018-07-14T03:55:00.050Z,15.47
2018-07-14T03:56:00.046Z,15.55
2018-07-14T03:57:00.067Z,15.51
2018-07-14T03:58:00.038Z,15.62
2018-07-14T03:59:00.036Z,15.64
2018-07-14T04:00:00.040Z,15.51
2018-07-14T04:01:00.053Z,15.57
2018-07-14T04:02:00.028Z,15.49
2018-07-14T04:03:00.022Z,15.52
2018-07-14T04:04:00.022Z,15.51
2018-07-14T04:05:00.019Z,15.43
2018-07-14T04:06:00.018Z,15.39
2018-07-14T04:07:00.012Z,15.39
2018-07-14T04:08:00.002Z,15.40
2018-07-14T04:09:00.000Z,15.44
2018-07-14T04:09:59.995Z,15.40
2018-07-14T04:10:59.991Z,15.40
2018-07-14T04:11:59.988Z,15.44
2018-07-14T04:12:59.987Z,15.44
2018-07-14T04:13:59.990Z,15.52
2018-07-14T04:14:59.978Z,15.39
2018-07-14T04:15:59.980Z,15.42
2018-07-14T04:16:59.970Z,15.40
2018-07-14T04:17:59.966Z,15.46
2018-07-14T04:18:59.968Z,15.39
2018-07-14T04:19:59.957Z,15.49
2018-07-14T04:20:59.969Z,15.55
2018-07-14T04:21:59.956Z,15.54
2018-07-14T04:22:59.950Z,15.51
2018-07-14T04:23:59.949Z,15.58
2018-07-14T04:24:59.947Z,15.58
2018-07-14T04:25:59.941Z,15.62
2018-07-14T04:26:59.935Z,15.61
2018-07-14T04:27:59.939Z,15.59
2018-07-14T04:28:59.938Z,15.54
2018-07-14T04:29:59.932Z,15.64
2018-07-14T04:30:59.923Z,15.59
2018-07-14T04:31:59.998Z,15.58
2018-07-14T04:32:59.927Z,15.57
2018-07-14T04:33:59.909Z,15.65
2018-07-14T04:34:59.916Z,15.61
2018-07-14T04:35:59.907Z,15.57
2018-07-14T04:36:59.913Z,15.62
2018-07-14T04:37:59.897Z,15.70
2018-07-14T04:38:59.893Z,15.70
2018-07-14T04:39:59.887Z,15.73
2018-07-14T04:40:59.886Z,15.70
2018-07-14T04:41:59.884Z,15.72
2018-07-14T04:42:59.880Z,15.75
2018-07-14T04:43:59.879Z,15.72
2018-07-14T04:44:59.874Z,15.76
2018-07-14T04:45:59.873Z,15.75
2018-07-14T04:46:59.870Z,15.79
2018-07-14T04:47:59.862Z,15.82
2018-07-14T04:48:59.871Z,15.84
2018-07-14T04:49:59.855Z,15.79
2018-07-14T04:50:59.855Z,15.80
2018-07-14T04:51:59.853Z,15.83
2018-07-14T04:52:59.880Z,15.75
2018-07-14T04:53:59.841Z,15.72
2018-07-14T04:54:59.845Z,15.76
2018-07-14T04:55:59.837Z,15.70
2018-07-14T04:56:59.835Z,15.67
2018-07-14T04:57:59.829Z,15.72
2018-07-14T04:58:59.831Z,15.83
2018-07-14T04:59:59.821Z,15.80
2018-07-14T05:00:59.825Z,15.91
2018-07-14T05:01:59.852Z,16.04
2018-07-14T05:02:59.812Z,16.04
2018-07-14T05:03:59.811Z,16.08
2018-07-14T05:04:59.806Z,16.05
2018-07-14T05:05:59.803Z,16.12
2018-07-14T05:06:59.800Z,16.21
2018-07-14T05:07:59.794Z,16.26
2018-07-14T05:08:59.792Z,16.32
2018-07-14T05:09:59.788Z,16.31
2018-07-14T05:10:59.788Z,16.29
2018-07-14T05:11:59.794Z,16.29
2018-07-14T05:12:59.777Z,16.29
2018-07-14T05:13:59.773Z,16.42
2018-07-14T05:14:59.770Z,16.47
2018-07-14T05:15:59.773Z,16.41
2018-07-14T05:16:59.768Z,16.58
2018-07-14T05:17:59.764Z,16.54
2018-07-14T05:18:59.764Z,16.65
2018-07-14T05:19:59.755Z,16.75
2018-07-14T05:20:59.751Z,16.71
2018-07-14T05:21:59.746Z,16.74
2018-07-14T05:22:59.775Z,16.81
2018-07-14T05:23:59.752Z,16.84
2018-07-14T05:24:59.759Z,16.81
2018-07-14T05:25:59.738Z,16.83
2018-07-14T05:26:59.734Z,17.02
2018-07-14T05:27:59.729Z,16.84
2018-07-14T05:28:59.729Z,17.02
2018-07-14T05:29:59.729Z,16.94
2018-07-14T05:30:59.718Z,17.01
2018-07-14T05:31:59.733Z,17.01
2018-07-14T05:32:59.749Z,16.96
2018-07-14T05:33:59.718Z,17.05
2018-07-14T05:34:59.716Z,17.05
2018-07-14T05:35:59.706Z,17.05
2018-07-14T05:36:59.709Z,17.05
2018-07-14T05:37:59.705Z,17.12
2018-07-14T05:38:59.703Z,17.15
2018-07-14T05:39:59.696Z,17.06
2018-07-14T05:40:59.700Z,17.14
2018-07-14T05:41:59.707Z,17.12
2018-07-14T05:42:59.693Z,17.15
2018-07-14T05:43:59.742Z,17.33
2018-07-14T05:44:59.689Z,17.46
2018-07-14T05:45:59.710Z,17.39
2018-07-14T05:46:59.686Z,17.49
2018-07-14T05:47:59.684Z,17.52
2018-07-14T05:48:59.688Z,17.74
2018-07-14T05:49:59.687Z,17.76
2018-07-14T05:50:59.680Z,17.92
2018-07-14T05:51:59.703Z,18.00
2018-07-14T05:52:59.680Z,18.07
2018-07-14T05:53:59.675Z,18.20
2018-07-14T05:54:59.676Z,18.26
2018-07-14T05:55:59.672Z,18.25
2018-07-14T05:56:59.674Z,18.28
2018-07-14T05:57:59.672Z,18.23
2018-07-14T05:58:59.684Z,18.23
2018-07-14T05:59:59.670Z,18.28
2018-07-14T06:00:59.672Z,18.20
2018-07-14T06:01:59.669Z,18.25
2018-07-14T06:02:59.670Z,18.31
2018-07-14T06:03:59.669Z,18.37
2018-07-14T06:04:59.670Z,18.29
2018-07-14T06:05:59.673Z,18.41
2018-07-14T06:06:59.667Z,18.53
2018-07-14T06:07:59.690Z,18.62
2018-07-14T06:08:59.667Z,18.56
2018-07-14T06:09:59.671Z,18.73
2018-07-14T06:10:59.666Z,18.83
2018-07-14T06:11:59.665Z,18.73
2018-07-14T06:12:59.669Z,18.84
2018-07-14T06:13:59.665Z,19.00
2018-07-14T06:14:59.677Z,19.09
2018-07-14T06:15:59.664Z,19.09
2018-07-14T06:16:59.669Z,19.09
2018-07-14T06:17:59.664Z,19.11
2018-07-14T06:18:59.668Z,19.19
2018-07-14T06:19:59.670Z,19.29
2018-07-14T06:20:59.667Z,19.44
2018-07-14T06:21:59.671Z,19.48
2018-07-14T06:22:59.669Z,19.49
2018-07-14T06:23:59.670Z,19.49
2018-07-14T06:24:59.669Z,19.49
2018-07-14T06:25:59.666Z,19.47
2018-07-14T06:26:59.670Z,19.51
2018-07-14T06:27:59.670Z,19.54
2018-07-14T06:28:59.676Z,19.64
2018-07-14T06:29:59.671Z,19.79
2018-07-14T06:30:59.672Z,19.74
2018-07-14T06:31:59.731Z,19.73
2018-07-14T06:32:59.686Z,19.71
2018-07-14T06:33:59.690Z,19.79
2018-07-14T06:34:59.686Z,19.91
2018-07-14T06:35:59.677Z,19.92
2018-07-14T06:36:59.683Z,20.07
2018-07-14T06:37:59.681Z,20.26
2018-07-14T06:38:59.686Z,20.24
2018-07-14T06:39:59.707Z,20.29
2018-07-14T06:40:59.691Z,20.36
2018-07-14T06:41:59.689Z,20.43
2018-07-14T06:42:59.694Z,20.66
2018-07-14T06:43:59.695Z,20.63
2018-07-14T06:44:59.699Z,20.74
2018-07-14T06:45:59.698Z,20.93
2018-07-14T06:46:59.704Z,21.09
2018-07-14T06:47:59.698Z,21.15
2018-07-14T06:48:59.709Z,21.29
2018-07-14T06:49:59.705Z,21.43
2018-07-14T06:50:59.711Z,21.61
2018-07-14T06:51:59.714Z,21.75
2018-07-14T06:53:00.647Z,21.73
2018-07-14T06:53:59.717Z,21.80
2018-07-14T06:54:59.719Z,21.72
2018-07-14T06:55:59.723Z,21.48
2018-07-14T06:56:59.735Z,21.51
2018-07-14T06:57:59.754Z,21.37
2018-07-14T06:58:59.731Z,21.14
2018-07-14T06:59:59.741Z,21.11
2018-07-14T07:00:59.742Z,21.21
2018-07-14T07:01:59.750Z,21.18
2018-07-14T07:02:59.750Z,21.45
2018-07-14T07:03:59.757Z,21.72
2018-07-14T07:04:59.757Z,21.95
2018-07-14T07:05:59.757Z,22.08
2018-07-14T07:06:59.768Z,22.10
2018-07-14T07:07:59.787Z,22.39
2018-07-14T07:08:59.774Z,22.51
2018-07-14T07:09:59.775Z,22.47
2018-07-14T07:10:59.785Z,22.23
2018-07-14T07:11:59.786Z,22.23
2018-07-14T07:12:59.787Z,22.14
2018-07-14T07:13:59.799Z,22.13
2018-07-14T07:14:59.796Z,22.10
2018-07-14T07:15:59.804Z,22.00
2018-07-14T07:16:59.803Z,21.99
2018-07-14T07:17:59.809Z,22.13
2018-07-14T07:18:59.814Z,22.14
2018-07-14T07:19:59.816Z,22.10
2018-07-14T07:20:59.821Z,21.98
2018-07-14T07:21:59.827Z,21.99
2018-07-14T07:22:59.829Z,21.98
2018-07-14T07:23:59.837Z,21.91
2018-07-14T07:24:59.846Z,21.77
2018-07-14T07:25:59.848Z,21.70
2018-07-14T07:26:59.850Z,21.48
2018-07-14T07:27:59.854Z,21.39
2018-07-14T07:28:59.862Z,21.42
2018-07-14T07:29:59.862Z,21.42
2018-07-14T07:30:59.871Z,21.48
2018-07-14T07:31:59.872Z,21.57
2018-07-14T07:32:59.877Z,21.93
2018-07-14T07:33:59.933Z,22.23
2018-07-14T07:34:59.897Z,22.29
2018-07-14T07:35:59.896Z,22.65
2018-07-14T07:36:59.899Z,22.88
2018-07-14T07:37:59.898Z,23.06
2018-07-14T07:38:59.908Z,23.17
2018-07-14T07:39:59.926Z,23.13
2018-07-14T07:40:59.918Z,23.31
2018-07-14T07:41:59.951Z,23.56
2018-07-14T07:42:59.930Z,23.74
2018-07-14T07:43:59.930Z,23.99
2018-07-14T07:44:59.952Z,24.02
2018-07-14T07:45:59.940Z,24.03
2018-07-14T07:46:59.946Z,24.17
2018-07-14T07:47:59.956Z,24.36
2018-07-14T07:48:59.959Z,24.50
2018-07-14T07:49:59.962Z,24.55
2018-07-14T07:50:59.968Z,24.42
2018-07-14T07:51:59.989Z,24.54
2018-07-14T07:52:59.985Z,24.47
2018-07-14T07:53:59.987Z,24.50
2018-07-14T07:54:59.988Z,24.60
2018-07-14T07:56:00.001Z,24.57
2018-07-14T07:57:00.004Z,24.45
2018-07-14T07:58:00.688Z,24.42
2018-07-14T07:59:00.034Z,24.33
2018-07-14T08:00:00.042Z,24.36
2018-07-14T08:01:00.031Z,24.42
2018-07-14T08:02:00.039Z,24.38
2018-07-14T08:03:00.043Z,24.29
2018-07-14T08:04:00.045Z,24.40
2018-07-14T08:05:00.049Z,24.69
2018-07-14T08:06:00.054Z,24.89
2018-07-14T08:07:00.066Z,25.14
2018-07-14T08:08:00.071Z,25.51
2018-07-14T08:09:00.101Z,25.59
2018-07-14T08:10:00.087Z,25.55
2018-07-14T08:11:00.098Z,25.69
2018-07-14T08:12:00.097Z,25.77
2018-07-14T08:13:00.125Z,25.58
2018-07-14T08:14:00.116Z,25.31
2018-07-14T08:15:00.135Z,25.17
2018-07-14T08:16:00.143Z,25.18
2018-07-14T08:17:00.130Z,25.28
2018-07-14T08:18:00.164Z,25.18
2018-07-14T08:19:00.144Z,25.17
2018-07-14T08:20:00.160Z,24.93
2018-07-14T08:21:00.178Z,24.66
2018-07-14T08:22:00.160Z,24.55
2018-07-14T08:23:00.190Z,24.48
2018-07-14T08:24:00.174Z,24.35
2018-07-14T08:25:00.192Z,24.51
2018-07-14T08:26:00.208Z,24.53
2018-07-14T08:27:00.216Z,24.35
2018-07-14T08:28:00.236Z,24.38
2018-07-14T08:29:00.205Z,24.63
2018-07-14T08:30:00.221Z,24.92
2018-07-14T08:31:00.220Z,25.22
2018-07-14T08:32:00.227Z,25.14
2018-07-14T08:33:00.238Z,25.21
2018-07-14T08:34:00.258Z,25.10
2018-07-14T08:35:00.250Z,25.40
2018-07-14T08:36:00.254Z,25.59
2018-07-14T08:37:01.224Z,25.77
2018-07-14T08:38:00.307Z,25.85
2018-07-14T08:39:00.282Z,25.69
2018-07-14T08:40:00.286Z,25.22
2018-07-14T08:41:00.295Z,24.99
2018-07-14T08:42:00.303Z,24.85
2018-07-14T08:43:00.334Z,24.98
2018-07-14T08:44:00.319Z,24.88
2018-07-14T08:45:00.320Z,24.95
2018-07-14T08:46:00.330Z,25.40
2018-07-14T08:47:00.360Z,25.88
2018-07-14T08:48:00.348Z,26.25
2018-07-14T08:49:00.352Z,26.43
2018-07-14T08:50:00.365Z,26.36
2018-07-14T08:51:00.377Z,26.43
2018-07-14T08:52:00.376Z,26.58
2018-07-14T08:53:01.232Z,26.84
2018-07-14T08:54:00.390Z,26.81
2018-07-14T08:55:00.397Z,26.95
2018-07-14T08:56:00.418Z,27.02
2018-07-14T08:57:00.420Z,26.92
2018-07-14T08:58:00.423Z,26.73
2018-07-14T08:59:00.433Z,26.33
2018-07-14T09:00:00.450Z,26.23
2018-07-14T09:01:00.469Z,26.05
2018-07-14T09:02:00.456Z,26.16
2018-07-14T09:03:00.466Z,26.25
2018-07-14T09:04:00.477Z,26.07
2018-07-14T09:05:00.487Z,25.77
2018-07-14T09:06:00.486Z,25.68
2018-07-14T09:07:00.506Z,25.87
2018-07-14T09:08:00.509Z,26.18
2018-07-14T09:09:00.517Z,26.38
2018-07-14T09:10:00.524Z,26.40
2018-07-14T09:11:00.530Z,26.33
2018-07-14T09:12:00.540Z,26.15
2018-07-14T09:13:00.546Z,26.13
2018-07-14T09:14:00.560Z,26.02
2018-07-14T09:15:01.248Z,26.25
2018-07-14T09:16:00.571Z,26.22
2018-07-14T09:17:02.242Z,26.31
2018-07-14T09:18:00.595Z,26.75
2018-07-14T09:19:00.604Z,26.93
2018-07-14T09:20:00.617Z,27.22
2018-07-14T09:21:00.617Z,27.35
2018-07-14T09:22:00.625Z,27.36
2018-07-14T09:23:00.640Z,27.37
2018-07-14T09:24:00.646Z,27.22
2018-07-14T09:25:00.660Z,27.36
2018-07-14T09:26:00.711Z,27.63
2018-07-14T09:27:00.697Z,28.12
2018-07-14T09:28:00.685Z,28.49
2018-07-14T09:29:00.690Z,28.69
2018-07-14T09:30:00.715Z,28.27
2018-07-14T09:31:00.708Z,27.67
2018-07-14T09:32:00.725Z,27.32
2018-07-14T09:33:00.727Z,27.02
2018-07-14T09:34:00.739Z,26.58
2018-07-14T09:35:00.764Z,26.25
2018-07-14T09:36:00.763Z,26.00
2018-07-14T09:37:00.771Z,25.99
2018-07-14T09:38:00.841Z,26.40
2018-07-14T09:39:00.785Z,26.71
2018-07-14T09:40:00.803Z,26.80
2018-07-14T09:41:00.800Z,26.92
2018-07-14T09:42:00.810Z,27.12
2018-07-14T09:43:00.831Z,26.99
2018-07-14T09:44:00.840Z,26.95
2018-07-14T09:45:00.843Z,26.85
2018-07-14T09:46:00.849Z,27.52
2018-07-14T09:47:00.863Z,27.85
2018-07-14T09:48:00.883Z,28.01
2018-07-14T09:49:00.880Z,28.30
2018-07-14T09:50:00.884Z,28.45
2018-07-14T09:51:00.923Z,28.63
2018-07-14T09:52:00.908Z,28.88
2018-07-14T09:53:00.933Z,29.08
2018-07-14T09:54:00.950Z,29.04
2018-07-14T09:55:00.933Z,28.93
2018-07-14T09:56:00.943Z,28.85
2018-07-14T09:57:00.952Z,28.88
2018-07-14T09:58:00.961Z,29.07
2018-07-14T09:59:00.971Z,29.35
2018-07-14T10:00:01.000Z,29.65
2018-07-14T10:01:00.993Z,29.73
2018-07-14T10:02:01.002Z,29.91
2018-07-14T10:03:01.023Z,29.72
2018-07-14T10:04:01.022Z,29.90
2018-07-14T10:05:01.029Z,29.87
2018-07-14T10:06:01.051Z,29.50
2018-07-14T10:07:01.054Z,29.23
2018-07-14T10:08:01.090Z,28.89
2018-07-14T10:09:01.076Z,28.84
2018-07-14T10:10:01.170Z,29.08
2018-07-14T10:11:01.099Z,29.07
2018-07-14T10:12:01.101Z,29.34
2018-07-14T10:13:01.154Z,29.50
2018-07-14T10:14:01.127Z,29.66
2018-07-14T10:15:01.315Z,30.09
2018-07-14T10:16:01.153Z,30.12
2018-07-14T10:17:01.157Z,29.98
2018-07-14T10:18:01.167Z,29.76
2018-07-14T10:19:01.174Z,29.02
2018-07-14T10:20:01.196Z,28.66
2018-07-14T10:21:01.210Z,29.10
2018-07-14T10:22:01.210Z,29.65
2018-07-14T10:23:01.225Z,29.90
2018-07-14T10:24:01.232Z,29.81
2018-07-14T10:25:01.305Z,29.69
2018-07-14T10:26:01.314Z,29.59
2018-07-14T10:27:01.264Z,29.42
2018-07-14T10:28:01.286Z,29.19
2018-07-14T10:29:01.327Z,29.16
2018-07-14T10:30:01.299Z,29.34
2018-07-14T10:31:01.313Z,29.39
2018-07-14T10:32:01.320Z,29.60
2018-07-14T10:33:01.339Z,29.63
2018-07-14T10:34:01.413Z,30.00
2018-07-14T10:35:01.357Z,30.30
2018-07-14T10:36:01.368Z,30.68
2018-07-14T10:37:01.382Z,30.80
2018-07-14T10:38:01.389Z,30.80
2018-07-14T10:39:01.426Z,30.68
2018-07-14T10:40:01.409Z,30.66
2018-07-14T10:41:01.423Z,30.77
2018-07-14T10:42:01.514Z,30.75
2018-07-14T10:43:01.453Z,30.31
2018-07-14T10:44:01.452Z,29.61
2018-07-14T10:45:01.476Z,28.81
2018-07-14T10:46:01.472Z,28.67
2018-07-14T10:47:01.491Z,28.49
2018-07-14T10:48:01.494Z,28.37
2018-07-14T10:49:01.572Z,28.62
2018-07-14T10:50:01.529Z,28.97
2018-07-14T10:51:01.530Z,29.35
2018-07-14T10:52:01.565Z,29.63
2018-07-14T10:53:01.596Z,29.75
2018-07-14T10:54:01.556Z,29.97
2018-07-14T10:55:01.592Z,30.46
2018-07-14T10:56:01.577Z,30.80
2018-07-14T10:57:01.635Z,31.20
2018-07-14T10:58:01.652Z,31.46
2018-07-14T10:59:01.636Z,31.81
2018-07-14T11:00:01.629Z,31.92
2018-07-14T11:01:01.640Z,32.09
2018-07-14T11:02:01.651Z,32.11
2018-07-14T11:03:01.670Z,32.31
2018-07-14T11:04:01.678Z,32.51
2018-07-14T11:05:01.679Z,32.75
2018-07-14T11:06:01.716Z,32.70
2018-07-14T11:07:01.704Z,32.49
2018-07-14T11:08:01.722Z,32.40
2018-07-14T11:09:01.760Z,32.12
2018-07-14T11:10:01.742Z,31.65
2018-07-14T11:11:01.752Z,31.34
2018-07-14T11:12:01.775Z,31.37
2018-07-14T11:13:01.798Z,31.21
2018-07-14T11:14:01.793Z,30.97
2018-07-14T11:15:01.799Z,30.61
2018-07-14T11:16:01.815Z,30.16
2018-07-14T11:17:01.825Z,29.75
2018-07-14T11:18:01.834Z,28.97
2018-07-14T11:19:01.850Z,28.17
2018-07-14T11:20:01.860Z,27.75
2018-07-14T11:21:01.870Z,27.59
2018-07-14T11:22:01.892Z,27.78
2018-07-14T11:23:01.894Z,28.14
2018-07-14T11:24:04.837Z,28.29
2018-07-14T11:25:01.907Z,28.45
2018-07-14T11:26:01.921Z,28.39
2018-07-14T11:27:01.930Z,28.29
2018-07-14T11:28:01.947Z,28.51
2018-07-14T11:29:01.948Z,28.60
2018-07-14T11:30:01.960Z,29.07
2018-07-14T11:31:01.992Z,29.44
2018-07-14T11:32:01.985Z,29.72
2018-07-14T11:33:01.990Z,29.84
2018-07-14T11:34:01.998Z,30.12
2018-07-14T11:35:02.024Z,30.16
2018-07-14T11:36:02.015Z,30.30
2018-07-14T11:37:02.029Z,30.54
2018-07-14T11:38:02.036Z,30.65
2018-07-14T11:39:02.052Z,31.00
2018-07-14T11:40:02.057Z,31.40
2018-07-14T11:41:02.070Z,31.94
2018-07-14T11:42:02.097Z,32.09
2018-07-14T11:43:02.093Z,31.80
2018-07-14T11:44:02.098Z,31.61
2018-07-14T11:45:02.115Z,31.17
2018-07-14T11:46:02.124Z,31.24
2018-07-14T11:47:02.138Z,31.10
2018-07-14T11:48:02.189Z,30.94
2018-07-14T11:49:02.161Z,30.88
2018-07-14T11:50:02.178Z,30.73
2018-07-14T11:51:02.183Z,30.66
2018-07-14T11:52:02.194Z,30.78
2018-07-14T11:53:02.205Z,30.69
2018-07-14T11:54:02.212Z,30.62
2018-07-14T11:55:02.225Z,30.61
2018-07-14T11:56:02.246Z,30.27
2018-07-14T11:57:02.249Z,30.15
2018-07-14T11:58:02.301Z,29.86
2018-07-14T11:59:02.291Z,29.72
2018-07-14T12:00:02.306Z,29.41
2018-07-14T12:01:02.315Z,29.04
2018-07-14T12:02:02.355Z,28.85
2018-07-14T12:03:02.317Z,28.07
2018-07-14T12:04:02.335Z,27.77
2018-07-14T12:05:02.336Z,27.64
2018-07-14T12:06:02.352Z,27.47
2018-07-14T12:07:03.864Z,27.44
2018-07-14T12:08:02.380Z,27.21
2018-07-14T12:09:02.379Z,27.10
2018-07-14T12:10:02.399Z,27.14
2018-07-14T12:11:02.403Z,27.29
2018-07-14T12:12:02.440Z,27.11
2018-07-14T12:13:02.422Z,26.99
2018-07-14T12:14:02.452Z,26.99
2018-07-14T12:15:02.444Z,27.10
2018-07-14T12:16:02.447Z,27.55
2018-07-14T12:17:02.461Z,28.01
2018-07-14T12:18:02.465Z,28.35
2018-07-14T12:19:02.482Z,28.57
2018-07-14T12:20:02.484Z,28.57
2018-07-14T12:21:02.492Z,28.38
2018-07-14T12:22:02.500Z,28.44
2018-07-14T12:23:02.510Z,28.39
2018-07-14T12:24:02.522Z,28.39
2018-07-14T12:25:02.532Z,28.15
2018-07-14T12:26:02.540Z,27.87
2018-07-14T12:27:02.553Z,27.89
2018-07-14T12:28:02.556Z,27.89
2018-07-14T12:29:02.564Z,27.86
2018-07-14T12:30:02.569Z,28.23
2018-07-14T12:31:02.576Z,28.41
2018-07-14T12:32:02.588Z,28.79
2018-07-14T12:33:02.601Z,28.91
2018-07-14T12:34:02.626Z,28.62
2018-07-14T12:35:02.613Z,28.00
2018-07-14T12:36:02.625Z,27.71
2018-07-14T12:37:02.661Z,27.70
2018-07-14T12:38:02.638Z,27.70
2018-07-14T12:39:02.645Z,27.75
2018-07-14T12:40:02.671Z,28.10
2018-07-14T12:41:02.685Z,28.20
2018-07-14T12:42:02.677Z,28.23
2018-07-14T12:43:02.710Z,28.35
2018-07-14T12:44:02.687Z,28.63
2018-07-14T12:45:02.730Z,28.67
2018-07-14T12:46:02.704Z,28.67
2018-07-14T12:47:02.713Z,28.67
2018-07-14T12:48:02.736Z,28.74
2018-07-14T12:49:02.764Z,29.08
2018-07-14T12:50:02.754Z,29.41
2018-07-14T12:51:02.778Z,29.79
2018-07-14T12:52:02.751Z,30.47